createdAt,value
2023-04-14T00:01:22.839Z,1.88
2023-04-14T00:03:52.459Z,2.03
2023-04-14T00:06:20.761Z,1.63
2023-04-14T00:08:48.902Z,1.63
2023-04-14T00:11:16.920Z,1.70
2023-04-14T00:13:45.080Z,2.22
2023-04-14T00:16:13.428Z,2.10
2023-04-14T00:18:41.569Z,1.83
2023-04-14T00:21:13.589Z,1.80
2023-04-14T00:23:43.917Z,1.60
2023-04-14T00:26:12.343Z,1.88
2023-04-14T00:31:12.983Z,1.65
2023-04-14T00:33:41.261Z,1.55
2023-04-14T00:36:09.610Z,2.22
2023-04-14T00:38:38.213Z,1.60
2023-04-14T00:41:06.490Z,1.90
2023-04-14T00:43:34.872Z,1.90
2023-04-14T00:46:03.719Z,1.80
2023-04-14T00:48:31.928Z,1.88
2023-04-14T00:50:59.932Z,1.83
2023-04-14T00:53:29.052Z,1.77
2023-04-14T00:55:57.424Z,1.75
2023-04-14T00:58:26.537Z,1.75
2023-04-14T01:00:59.913Z,2.25
2023-04-14T01:03:31.194Z,1.73
2023-04-14T01:05:59.600Z,2.22
2023-04-14T01:08:28.228Z,1.88
2023-04-14T01:11:11.594Z,1.80
2023-04-14T01:13:44.207Z,1.83
2023-04-14T01:16:34.763Z,2.25
2023-04-14T01:19:30.294Z,2.17
2023-04-14T01:22:05.229Z,2.17
2023-04-14T01:24:58.153Z,2.50
2023-04-14T01:27:54.908Z,2.30
2023-04-14T01:30:36.078Z,2.85
2023-04-14T01:33:08.918Z,2.72
2023-04-14T01:35:45.827Z,2.80
2023-04-14T01:38:20.057Z,3.30
2023-04-14T01:40:52.524Z,2.63
2023-04-14T01:43:26.555Z,2.72
2023-04-14T01:45:58.822Z,2.35
2023-04-14T01:48:27.676Z,2.65
2023-04-14T01:50:56.463Z,2.50
2023-04-14T01:53:27.752Z,2.67
2023-04-14T01:55:57.240Z,1.92
2023-04-14T01:58:26.822Z,2.05
2023-04-14T02:00:58.638Z,2.40
2023-04-14T02:03:27.134Z,2.42
2023-04-14T02:05:55.961Z,2.10
2023-04-14T02:08:25.140Z,2.20
2023-04-14T02:10:54.731Z,2.10
2023-04-14T02:13:23.289Z,2.15
2023-04-14T02:15:52.401Z,2.00
2023-04-14T02:18:23.861Z,2.40
2023-04-14T02:20:52.977Z,2.63
2023-04-14T02:23:21.308Z,2.50
2023-04-14T02:25:57.900Z,2.33
2023-04-14T02:28:33.023Z,1.90
2023-04-14T02:31:05.643Z,1.95
2023-04-14T02:33:37.267Z,2.10
2023-04-14T02:36:28.543Z,2.10
2023-04-14T02:38:59.969Z,2.20
2023-04-14T02:44:25.242Z,1.83
2023-04-14T02:47:07.208Z,2.42
2023-04-14T02:49:43.860Z,1.80
2023-04-14T02:52:12.975Z,2.35
2023-04-14T02:54:43.647Z,1.98
2023-04-14T02:57:13.089Z,2.70
2023-04-14T02:59:46.973Z,2.55
2023-04-14T03:02:15.932Z,2.80
2023-04-14T03:04:48.172Z,3.10
2023-04-14T03:07:29.629Z,2.65
2023-04-14T03:09:58.604Z,2.65
2023-04-14T03:12:26.887Z,2.50
2023-04-14T03:17:27.440Z,2.50
2023-04-14T03:19:56.773Z,2.83
2023-04-14T03:22:29.124Z,2.78
2023-04-14T03:25:01.021Z,2.45
2023-04-14T03:27:32.862Z,3.10
2023-04-14T03:30:04.642Z,3.55
2023-04-14T03:32:41.835Z,2.63
2023-04-14T03:35:15.375Z,3.63
2023-04-14T03:37:44.328Z,3.85
2023-04-14T03:40:14.929Z,2.75
2023-04-14T03:42:47.247Z,2.83
2023-04-14T03:45:21.423Z,3.20
2023-04-14T03:47:50.332Z,2.97
2023-04-14T03:50:21.676Z,3.22
2023-04-14T03:52:52.880Z,3.25
2023-04-14T03:55:21.202Z,3.15
2023-04-14T03:57:50.346Z,2.80
2023-04-14T04:00:20.049Z,3.72
2023-04-14T04:03:18.723Z,3.30
2023-04-14T04:05:47.673Z,2.92
2023-04-14T04:08:17.188Z,3.80
2023-04-14T04:10:46.301Z,2.90
2023-04-14T04:13:19.803Z,3.25
2023-04-14T04:15:53.883Z,3.40
2023-04-14T04:18:24.127Z,2.97
2023-04-14T04:20:54.269Z,3.28
2023-04-14T04:23:23.059Z,3.92
2023-04-14T04:25:52.454Z,3.70
2023-04-14T04:28:39.006Z,3.28
2023-04-14T04:31:07.326Z,3.60
2023-04-14T04:33:36.093Z,3.30
2023-04-14T04:36:06.755Z,3.25
2023-04-14T04:38:40.885Z,3.60
2023-04-14T04:41:09.129Z,5.43
2023-04-14T04:43:37.443Z,3.60
2023-04-14T04:46:05.589Z,3.65
2023-04-14T04:48:34.056Z,3.25
2023-04-14T04:51:02.178Z,3.00
2023-04-14T04:53:33.349Z,3.05
2023-04-14T04:56:01.516Z,2.85
2023-04-14T04:58:30.021Z,3.30
2023-04-14T05:00:58.365Z,3.60
2023-04-14T05:03:26.756Z,2.97
2023-04-14T05:05:55.469Z,3.90
2023-04-14T05:08:24.201Z,3.15
2023-04-14T05:10:52.429Z,3.30
2023-04-14T05:13:20.413Z,3.30
2023-04-14T05:15:48.811Z,3.22
2023-04-14T05:18:20.961Z,3.10
2023-04-14T05:20:49.014Z,3.30
2023-04-14T05:23:17.265Z,2.92
2023-04-14T05:25:47.497Z,3.45
2023-04-14T05:28:17.036Z,3.15
2023-04-14T05:30:49.959Z,3.40
2023-04-14T05:33:21.267Z,3.53
2023-04-14T05:35:51.551Z,3.20
2023-04-14T05:38:20.612Z,3.88
2023-04-14T05:40:52.459Z,2.60
2023-04-14T05:45:48.486Z,3.22
2023-04-14T05:48:17.421Z,3.22
2023-04-14T05:50:45.802Z,3.03
2023-04-14T05:53:13.862Z,3.15
2023-04-14T05:55:42.173Z,3.03
2023-04-14T05:58:10.318Z,3.42
2023-04-14T06:00:41.369Z,3.30
2023-04-14T06:03:12.400Z,3.13
2023-04-14T06:05:40.667Z,3.47
2023-04-14T06:08:08.568Z,3.75
2023-04-14T06:10:36.739Z,3.05
2023-04-14T06:13:07.678Z,4.13
2023-04-14T06:15:37.824Z,3.25
2023-04-14T06:18:06.800Z,3.72
2023-04-14T06:20:36.519Z,3.90
2023-04-14T06:23:05.923Z,3.20
2023-04-14T06:25:39.534Z,3.35
2023-04-14T06:28:08.100Z,3.75
2023-04-14T06:30:36.483Z,4.07
2023-04-14T06:33:05.194Z,3.40
2023-04-14T06:35:35.395Z,3.90
2023-04-14T06:38:04.077Z,3.35
2023-04-14T06:40:32.478Z,3.78
2023-04-14T06:43:00.546Z,3.58
2023-04-14T06:45:29.315Z,3.13
2023-04-14T06:47:57.761Z,3.60
2023-04-14T06:50:26.100Z,3.53
2023-04-14T06:52:54.090Z,3.58
2023-04-14T06:55:22.157Z,3.38
2023-04-14T06:57:50.520Z,3.22
2023-04-14T07:00:19.267Z,3.00
2023-04-14T07:02:47.429Z,3.78
2023-04-14T07:05:15.486Z,4.30
2023-04-14T07:07:49.637Z,3.03
2023-04-14T07:10:18.384Z,3.47
2023-04-14T07:12:46.576Z,3.10
2023-04-14T07:15:14.953Z,3.08
2023-04-14T07:17:43.599Z,3.65
2023-04-14T07:20:12.357Z,3.15
2023-04-14T07:22:41.038Z,3.20
2023-04-14T07:25:09.353Z,2.90
2023-04-14T07:27:37.364Z,3.40
2023-04-14T07:30:07.134Z,3.45
2023-04-14T07:32:35.777Z,2.83
2023-04-14T07:35:04.345Z,4.00
2023-04-14T07:37:33.031Z,3.03
2023-04-14T07:40:01.877Z,3.28
2023-04-14T07:42:31.168Z,2.75
2023-04-14T07:44:59.661Z,2.80
2023-04-14T07:47:28.858Z,3.15
2023-04-14T07:49:58.565Z,2.92
2023-04-14T07:52:27.073Z,2.85
2023-04-14T07:54:55.425Z,3.03
2023-04-14T07:57:23.756Z,3.00
2023-04-14T07:59:52.006Z,2.25
2023-04-14T08:02:20.970Z,2.85
2023-04-14T08:04:49.454Z,2.53
2023-04-14T08:07:17.485Z,2.65
2023-04-14T08:09:45.753Z,2.80
2023-04-14T08:12:13.797Z,2.78
2023-04-14T08:14:42.477Z,2.92
2023-04-14T08:17:10.736Z,2.50
2023-04-14T08:19:38.946Z,3.22
2023-04-14T08:22:07.125Z,3.25
2023-04-14T08:24:37.673Z,3.05
2023-04-14T08:27:06.170Z,2.92
2023-04-14T08:29:34.410Z,2.45
2023-04-14T08:32:03.538Z,2.88
2023-04-14T08:34:32.754Z,2.63
2023-04-14T08:37:01.039Z,2.90
2023-04-14T08:39:29.474Z,2.90
2023-04-14T08:41:58.796Z,2.72
2023-04-14T08:44:27.224Z,3.05
2023-04-14T08:46:57.494Z,2.85
2023-04-14T08:49:43.125Z,2.73
2023-04-14T08:52:14.145Z,3.03
2023-04-14T08:54:43.057Z,2.97
2023-04-14T08:57:13.145Z,2.92
2023-04-14T08:59:42.661Z,2.85
2023-04-14T09:02:12.475Z,2.97
2023-04-14T09:04:40.807Z,3.28
2023-04-14T09:07:09.569Z,3.20
2023-04-14T09:09:37.813Z,2.80
2023-04-14T09:12:06.318Z,3.13
2023-04-14T09:14:34.820Z,3.50
2023-04-14T09:17:03.244Z,2.90
2023-04-14T09:19:32.932Z,3.13
2023-04-14T09:22:01.600Z,2.92
2023-04-14T09:24:32.401Z,2.90
2023-04-14T09:29:36.846Z,2.38
2023-04-14T09:32:07.504Z,2.72
2023-04-14T09:34:36.670Z,2.47
2023-04-14T09:37:06.619Z,3.42
2023-04-14T09:39:37.698Z,3.15
2023-04-14T09:42:06.840Z,3.22
2023-04-14T09:44:35.757Z,2.90
2023-04-14T09:47:07.058Z,2.65
2023-04-14T09:49:37.732Z,2.95
2023-04-14T09:52:10.212Z,2.67
2023-04-14T09:54:44.282Z,2.40
2023-04-14T09:57:12.496Z,2.38
2023-04-14T09:59:40.938Z,2.13
2023-04-14T10:02:12.650Z,2.63
2023-04-14T10:04:41.276Z,2.80
2023-04-14T10:07:11.490Z,2.78
2023-04-14T10:09:44.555Z,2.80
2023-04-14T10:12:18.562Z,2.85
2023-04-14T10:14:46.773Z,2.92
2023-04-14T10:17:15.073Z,3.00
2023-04-14T10:19:43.510Z,2.70
2023-04-14T10:22:12.529Z,2.65
2023-04-14T10:24:42.318Z,2.70
2023-04-14T10:27:10.324Z,2.90
2023-04-14T10:29:42.558Z,1.90
2023-04-14T10:32:11.358Z,2.20
2023-04-14T10:34:42.586Z,2.85
2023-04-14T10:37:17.678Z,2.55
2023-04-14T10:39:59.396Z,2.67
2023-04-14T10:42:29.439Z,2.58
2023-04-14T10:45:08.741Z,2.63
2023-04-14T10:47:41.810Z,2.63
2023-04-14T10:50:20.588Z,2.45
2023-04-14T10:52:57.114Z,2.75
2023-04-14T10:55:28.746Z,2.50
2023-04-14T10:58:06.932Z,2.53
2023-04-14T11:00:39.562Z,2.20
2023-04-14T11:03:19.776Z,2.53
2023-04-14T11:05:54.267Z,2.58
2023-04-14T11:08:38.939Z,2.55
2023-04-14T11:11:08.347Z,2.70
2023-04-14T11:13:38.989Z,2.85
2023-04-14T11:16:11.084Z,2.17
2023-04-14T11:18:46.279Z,2.30
2023-04-14T11:21:16.557Z,1.90
2023-04-14T11:23:45.004Z,2.42
2023-04-14T11:26:19.293Z,2.28
2023-04-14T11:28:47.911Z,2.22
2023-04-14T11:31:17.863Z,2.17
2023-04-14T11:33:46.532Z,1.83
2023-04-14T11:36:18.344Z,1.77
2023-04-14T11:38:47.576Z,2.13
2023-04-14T11:41:17.018Z,1.88
2023-04-14T11:43:47.247Z,1.90
2023-04-14T11:46:16.581Z,1.80
2023-04-14T11:48:45.284Z,2.00
2023-04-14T11:51:13.577Z,1.98
2023-04-14T11:53:44.625Z,2.50
2023-04-14T11:56:13.432Z,1.70
2023-04-14T11:58:41.838Z,2.67
2023-04-14T12:01:12.639Z,2.45
2023-04-14T12:03:44.461Z,2.53
2023-04-14T12:06:12.722Z,2.08
2023-04-14T12:08:41.445Z,1.98
2023-04-14T12:11:13.796Z,2.35
2023-04-14T12:13:46.382Z,2.25
2023-04-14T12:16:15.773Z,2.10
2023-04-14T12:18:44.932Z,2.38
2023-04-14T12:21:19.042Z,1.73
2023-04-14T12:23:48.835Z,1.80
2023-04-14T12:26:18.300Z,1.50
2023-04-14T12:28:46.482Z,1.70
2023-04-14T12:31:14.891Z,1.70
2023-04-14T12:33:46.209Z,2.38
2023-04-14T12:36:15.657Z,2.20
2023-04-14T12:38:49.092Z,1.65
2023-04-14T12:41:26.832Z,1.60
2023-04-14T12:43:54.803Z,1.88
2023-04-14T12:46:26.989Z,1.77
2023-04-14T12:48:55.620Z,1.98
2023-04-14T12:51:23.681Z,1.90
2023-04-14T12:53:52.567Z,1.73
2023-04-14T12:56:24.496Z,1.48
2023-04-14T12:58:52.635Z,1.98
2023-04-14T13:01:25.030Z,1.58
2023-04-14T13:03:58.066Z,1.70
2023-04-14T13:06:27.790Z,1.95
2023-04-14T13:08:57.821Z,1.70
2023-04-14T13:11:26.136Z,1.85
2023-04-14T13:13:54.719Z,1.88
2023-04-14T13:16:26.425Z,1.40
2023-04-14T13:18:59.834Z,1.50
2023-04-14T13:21:28.653Z,1.38
2023-04-14T13:23:57.273Z,1.25
2023-04-14T13:26:28.663Z,1.20
2023-04-14T13:28:56.962Z,1.35
2023-04-14T13:31:25.043Z,1.50
2023-04-14T13:33:53.169Z,1.05
2023-04-14T13:36:20.982Z,1.20
2023-04-14T13:38:49.019Z,1.65
2023-04-14T13:41:19.733Z,1.35
2023-04-14T13:43:48.533Z,1.40
2023-04-14T13:46:19.061Z,1.42
2023-04-14T13:48:47.957Z,1.47
2023-04-14T13:51:20.659Z,1.33
2023-04-14T13:53:48.694Z,1.10
2023-04-14T13:56:20.072Z,1.70
2023-04-14T13:58:48.162Z,1.50
2023-04-14T14:01:16.745Z,1.20
2023-04-14T14:03:45.926Z,1.45
2023-04-14T14:06:15.235Z,1.50
2023-04-14T14:08:43.863Z,1.85
2023-04-14T14:11:12.932Z,1.55
2023-04-14T14:13:41.525Z,1.30
2023-04-14T14:16:10.865Z,1.35
2023-04-14T14:18:39.506Z,1.33
2023-04-14T14:21:07.926Z,1.40
2023-04-14T14:23:36.995Z,1.20
2023-04-14T14:26:05.162Z,1.30
2023-04-14T14:28:34.055Z,1.10
2023-04-14T14:31:02.360Z,1.42
2023-04-14T14:33:31.236Z,1.40
2023-04-14T14:35:59.721Z,1.20
2023-04-14T14:38:27.789Z,1.23
2023-04-14T14:40:56.670Z,0.82
2023-04-14T14:43:25.784Z,1.00
2023-04-14T14:45:53.885Z,0.90
2023-04-14T14:48:22.552Z,0.68
2023-04-14T14:50:50.759Z,0.88
2023-04-14T14:53:19.269Z,0.85
2023-04-14T14:55:47.226Z,1.30
2023-04-14T14:58:15.872Z,0.90
2023-04-14T15:00:43.896Z,0.95
2023-04-14T15:03:13.779Z,1.00
2023-04-14T15:05:42.511Z,0.88
2023-04-14T15:08:10.901Z,0.57
2023-04-14T15:10:41.660Z,0.90
2023-04-14T15:13:10.454Z,0.70
2023-04-14T15:15:39.336Z,0.70
2023-04-14T15:18:08.235Z,0.70
2023-04-14T15:20:37.151Z,0.75
2023-04-14T15:23:08.520Z,0.90
2023-04-14T15:25:37.023Z,0.93
2023-04-14T15:28:08.791Z,0.60
2023-04-14T15:30:36.984Z,0.60
2023-04-14T15:33:08.571Z,0.65
2023-04-14T15:35:38.890Z,0.50
2023-04-14T15:38:15.096Z,0.70
2023-04-14T15:40:44.036Z,0.52
2023-04-14T15:43:13.241Z,0.50
2023-04-14T15:45:44.193Z,0.50
2023-04-14T15:50:45.176Z,0.60
2023-04-14T15:53:13.605Z,0.57
2023-04-14T15:55:41.794Z,0.73
2023-04-14T15:58:10.168Z,0.50
2023-04-14T16:00:38.572Z,0.77
2023-04-14T16:03:07.373Z,0.73
2023-04-14T16:05:35.907Z,0.90
2023-04-14T16:08:04.518Z,0.63
2023-04-14T16:10:32.982Z,0.70
2023-04-14T16:13:02.183Z,0.90
2023-04-14T16:15:31.717Z,0.68
2023-04-14T16:18:00.958Z,0.85
2023-04-14T16:20:29.526Z,0.52
2023-04-14T16:22:57.776Z,1.42
2023-04-14T16:25:31.687Z,1.40
2023-04-14T16:27:59.751Z,1.50
2023-04-14T16:30:28.112Z,1.30
2023-04-14T16:32:57.354Z,1.25
2023-04-14T16:35:26.206Z,1.02
2023-04-14T16:37:54.285Z,1.25
2023-04-14T16:40:22.634Z,1.50
2023-04-14T16:42:51.415Z,1.40
2023-04-14T16:45:19.791Z,1.30
2023-04-14T16:47:48.969Z,1.45
2023-04-14T16:50:20.551Z,1.75
2023-04-14T16:52:48.592Z,1.60
2023-04-14T16:55:16.872Z,1.13
2023-04-14T16:57:44.851Z,1.30
2023-04-14T17:00:14.153Z,1.40
2023-04-14T17:02:42.815Z,1.50
2023-04-14T17:05:13.224Z,1.40
2023-04-14T17:07:42.389Z,1.30
2023-04-14T17:10:10.862Z,1.02
2023-04-14T17:12:39.206Z,1.08
2023-04-14T17:15:07.962Z,1.88
2023-04-14T17:17:37.074Z,1.10
2023-04-14T17:20:06.658Z,1.20
2023-04-14T17:22:37.236Z,1.10
2023-04-14T17:25:06.775Z,1.30
2023-04-14T17:27:35.031Z,1.00
2023-04-14T17:30:05.084Z,1.10
2023-04-14T17:32:33.865Z,1.02
2023-04-14T17:35:04.111Z,1.25
2023-04-14T17:37:32.380Z,1.40
2023-04-14T17:40:00.981Z,1.40
2023-04-14T17:42:28.869Z,1.17
2023-04-14T17:44:57.084Z,1.55
2023-04-14T17:47:25.624Z,1.70
2023-04-14T17:49:54.927Z,1.60
2023-04-14T17:52:23.182Z,1.27
2023-04-14T17:54:52.020Z,2.15
2023-04-14T17:57:20.059Z,1.30
2023-04-14T17:59:48.877Z,1.52
2023-04-14T18:02:17.075Z,1.30
2023-04-14T18:04:45.932Z,1.60
2023-04-14T18:07:16.958Z,1.20
2023-04-14T18:09:45.035Z,0.90
2023-04-14T18:12:14.028Z,1.20
2023-04-14T18:14:42.069Z,1.20
2023-04-14T18:17:10.996Z,1.20
2023-04-14T18:19:39.484Z,1.08
2023-04-14T18:22:08.162Z,1.45
2023-04-14T18:29:38.580Z,1.15
2023-04-14T18:32:06.622Z,1.27
2023-04-14T18:34:35.132Z,1.40
2023-04-14T18:37:05.493Z,1.15
2023-04-14T18:39:37.216Z,1.17
2023-04-14T18:42:05.784Z,1.27
2023-04-14T18:44:33.987Z,1.00
2023-04-14T18:47:02.135Z,1.10
2023-04-14T18:49:30.336Z,1.00
2023-04-14T18:51:58.523Z,1.30
2023-04-14T18:54:26.704Z,0.80
2023-04-14T18:56:55.898Z,1.00
2023-04-14T18:59:25.101Z,0.90
2023-04-14T19:01:53.248Z,1.08
2023-04-14T19:04:21.715Z,0.90
2023-04-14T19:06:50.142Z,0.75
2023-04-14T19:09:18.135Z,1.00
2023-04-14T19:11:46.597Z,0.80
2023-04-14T19:14:14.797Z,0.90
2023-04-14T19:16:42.931Z,1.10
2023-04-14T19:19:10.807Z,0.85
2023-04-14T19:21:38.698Z,1.00
2023-04-14T19:24:06.767Z,1.00
2023-04-14T19:26:37.813Z,1.33
2023-04-14T19:29:05.780Z,1.50
2023-04-14T19:31:34.614Z,1.20
2023-04-14T19:34:02.567Z,1.17
2023-04-14T19:36:34.373Z,1.30
2023-04-14T19:39:02.698Z,1.17
2023-04-14T19:41:32.255Z,1.30
2023-04-14T19:44:00.373Z,1.45
2023-04-14T19:46:29.523Z,1.33
2023-04-14T19:48:57.971Z,1.30
2023-04-14T19:51:27.540Z,1.50
2023-04-14T19:53:55.741Z,1.25
2023-04-14T19:56:23.841Z,1.27
2023-04-14T19:58:54.591Z,1.10
2023-04-14T20:01:25.482Z,1.20
2023-04-14T20:04:09.926Z,1.30
2023-04-14T20:06:45.243Z,1.38
2023-04-14T20:09:13.169Z,1.17
2023-04-14T20:11:41.175Z,1.08
2023-04-14T20:14:12.719Z,0.90
2023-04-14T20:19:13.512Z,1.40
2023-04-14T20:21:41.450Z,1.17
2023-04-14T20:24:09.458Z,1.40
2023-04-14T20:26:42.768Z,1.20
2023-04-14T20:29:12.429Z,1.40
2023-04-14T20:31:41.808Z,1.42
2023-04-14T20:34:10.636Z,1.35
2023-04-14T20:36:38.721Z,1.67
2023-04-14T20:39:07.372Z,1.02
2023-04-14T20:41:38.800Z,1.25
2023-04-14T20:46:35.738Z,1.33
2023-04-14T20:49:04.325Z,1.30
2023-04-14T20:51:33.031Z,1.17
2023-04-14T20:54:02.071Z,1.10
2023-04-14T20:56:32.077Z,1.10
2023-04-14T20:59:00.828Z,1.60
2023-04-14T21:01:29.139Z,1.60
2023-04-14T21:03:57.469Z,1.30
2023-04-14T21:06:26.288Z,1.30
2023-04-14T21:08:54.383Z,1.35
2023-04-14T21:11:22.612Z,1.35
2023-04-14T21:15:43.551Z,1.42
2023-04-14T21:16:39.582Z,1.50
2023-04-14T21:19:07.949Z,1.50
2023-04-14T21:21:38.758Z,1.42
2023-04-14T21:24:10.971Z,1.30
2023-04-14T21:26:39.020Z,1.63
2023-04-14T21:29:12.883Z,1.55
2023-04-14T21:31:41.259Z,1.42
2023-04-14T21:34:09.362Z,1.67
2023-04-14T21:36:37.675Z,1.80
2023-04-14T21:39:05.750Z,1.67
2023-04-14T21:41:33.973Z,1.58
2023-04-14T21:44:02.904Z,1.30
2023-04-14T21:46:31.077Z,1.60
2023-04-14T21:49:01.153Z,1.55
2023-04-14T21:51:32.481Z,1.42
2023-04-14T21:54:00.526Z,1.48
2023-04-14T21:56:29.573Z,1.60
2023-04-14T21:58:57.623Z,1.77
2023-04-14T22:01:26.332Z,1.52
2023-04-14T22:03:56.160Z,1.70
2023-04-14T22:06:28.062Z,1.55
2023-04-14T22:08:56.164Z,1.52
2023-04-14T22:11:24.433Z,2.17
2023-04-14T22:13:52.906Z,1.60
2023-04-14T22:16:20.841Z,1.63
2023-04-14T22:18:49.511Z,1.48
2023-04-14T22:21:18.176Z,1.55
2023-04-14T22:23:46.147Z,1.70
2023-04-14T22:26:14.658Z,1.50
2023-04-14T22:28:42.912Z,2.13
2023-04-14T22:31:11.301Z,1.60
2023-04-14T22:33:39.721Z,2.00
2023-04-14T22:36:08.367Z,2.20
2023-04-14T22:38:36.788Z,1.92
2023-04-14T22:41:05.060Z,1.95
2023-04-14T22:43:33.208Z,2.17
2023-04-14T22:46:02.006Z,2.08
2023-04-14T22:48:30.387Z,1.85
2023-04-14T22:50:58.578Z,2.22
2023-04-14T22:53:26.658Z,1.80
2023-04-14T22:55:54.608Z,1.95
2023-04-14T22:58:24.358Z,2.42
2023-04-14T23:00:53.272Z,2.03
2023-04-14T23:03:21.772Z,2.15
2023-04-14T23:05:52.149Z,1.88
2023-04-14T23:08:22.441Z,2.17
2023-04-14T23:10:50.668Z,2.33
2023-04-14T23:13:19.188Z,2.20
2023-04-14T23:15:47.863Z,2.25
2023-04-14T23:18:20.805Z,2.15
2023-04-14T23:20:49.016Z,3.00
2023-04-14T23:23:17.503Z,2.20
2023-04-14T23:25:45.469Z,2.70
2023-04-14T23:28:14.285Z,2.30
2023-04-14T23:30:45.579Z,2.70
2023-04-14T23:33:14.193Z,2.60
2023-04-14T23:35:42.775Z,2.42
2023-04-14T23:38:10.798Z,2.20
2023-04-14T23:40:39.106Z,2.65
2023-04-14T23:43:07.426Z,2.40
2023-04-14T23:45:37.995Z,2.35
2023-04-14T23:48:07.344Z,2.00
2023-04-14T23:51:00.690Z,2.15
2023-04-14T23:53:24.946Z,2.00
2023-04-14T23:55:53.283Z,2.20
2023-04-14T23:58:26.629Z,2.33
